Terminal Aerodrome Forecast
Issued by NWS Cleveland, OH

Home | Current Version | Previous Version | Graphics & Text | Print | Product List | Glossary On
Versions: 1 2 3 4 5 6 7 8 9 10 11 12 13 14
000
FTUS41 KCLE 092300
TAFCAK
TAF
KCAK 092336Z 1000/1024 34011KT P6SM VCSH BKN060 OVC100
     FM100300 VRB03KT P6SM SCT060
      TEMPO 1010/1013 5SM BR
     FM101400 01006KT P6SM SCT040=

USA.gov is the U.S. government's official web portal to all federal, state and local government web resources and services.